Time;durP1;ratioP1;P1;durP2;ratioP2;P2;SDS_P1;SDS_P2;PMS_P1;PMS_P2;Temp;Humidity;BMP_temperature;BMP_pressure;BME280_temperature;BME280_humidity;BME280_pressure;Samples;Min_cycle;Max_cycle;Signal;HPM_P1;HPM_P2
2022/12/12 00:00:52;;;;;;;4.55;1.88;;;19.40;52.20;;;;;;4973426;28;20129;-57
2022/12/12 00:03:18;;;;;;;3.25;1.60;;;19.40;52.20;;;;;;4973624;28;20043;-57
2022/12/12 00:05:44;;;;;;;2.97;1.73;;;19.40;52.20;;;;;;4973968;28;20406;-57
2022/12/12 00:08:09;;;;;;;3.28;2.03;;;19.40;52.20;;;;;;4972827;28;20717;-57
2022/12/12 00:10:35;;;;;;;3.10;1.60;;;19.40;52.10;;;;;;4974202;28;20049;-57
2022/12/12 00:13:01;;;;;;;4.30;2.03;;;19.40;52.10;;;;;;4973542;28;20039;-57
2022/12/12 00:15:27;;;;;;;3.65;1.65;;;19.30;52.00;;;;;;4972292;28;20042;-57
2022/12/12 00:17:53;;;;;;;3.13;1.83;;;19.30;52.10;;;;;;4973686;28;20050;-57
2022/12/12 00:20:19;;;;;;;3.22;1.92;;;19.30;52.00;;;;;;4973513;28;20045;-57
2022/12/12 00:22:44;;;;;;;3.60;1.70;;;19.30;52.00;;;;;;4973118;28;20177;-57
2022/12/12 00:25:10;;;;;;;3.55;1.90;;;19.30;52.00;;;;;;4973745;28;20475;-57
2022/12/12 00:27:36;;;;;;;3.50;1.90;;;19.30;51.90;;;;;;4973961;28;20050;-57
2022/12/12 00:30:01;;;;;;;4.75;1.90;;;19.30;51.90;;;;;;4973250;28;20047;-57
2022/12/12 00:32:27;;;;;;;3.40;2.20;;;19.30;51.90;;;;;;4973454;28;20042;-57
2022/12/12 00:34:53;;;;;;;3.95;2.05;;;19.30;51.90;;;;;;4973607;28;20043;-57
2022/12/12 00:37:18;;;;;;;3.03;2.10;;;19.30;51.90;;;;;;4972565;28;20051;-57
2022/12/12 00:39:44;;;;;;;3.08;1.88;;;19.30;51.90;;;;;;4968691;28;20049;-57
2022/12/12 00:42:09;;;;;;;3.80;2.15;;;19.20;51.90;;;;;;4972666;28;20043;-57
2022/12/12 00:44:35;;;;;;;2.95;1.60;;;19.20;51.80;;;;;;4971829;28;20137;-57
2022/12/12 00:47:01;;;;;;;2.88;1.75;;;19.20;51.80;;;;;;4972392;28;20138;-57
2022/12/12 00:49:27;;;;;;;3.53;1.83;;;19.20;51.80;;;;;;4972786;28;20055;-57
2022/12/12 00:51:52;;;;;;;3.65;1.70;;;19.20;51.80;;;;;;4972018;28;20057;-57
2022/12/12 00:54:18;;;;;;;3.22;1.73;;;19.10;51.70;;;;;;4973023;28;20042;-58
2022/12/12 00:56:43;;;;;;;4.38;2.00;;;19.20;51.70;;;;;;4972838;28;20066;-57
2022/12/12 00:59:09;;;;;;;3.05;1.73;;;19.10;51.70;;;;;;4973146;28;20093;-58
2022/12/12 01:01:35;;;;;;;3.97;1.80;;;19.10;51.70;;;;;;4973589;28;20114;-57
2022/12/12 01:04:01;;;;;;;3.95;2.13;;;19.10;51.70;;;;;;4972914;28;20047;-57
2022/12/12 01:06:26;;;;;;;3.45;1.80;;;19.10;51.70;;;;;;4972584;28;20074;-57
2022/12/12 01:08:52;;;;;;;4.97;1.88;;;19.10;51.70;;;;;;4973268;28;20050;-57
2022/12/12 01:11:18;;;;;;;3.72;2.00;;;19.10;51.70;;;;;;4972561;28;20035;-57
2022/12/12 01:13:44;;;;;;;2.20;1.60;;;19.00;51.50;;;;;;4973311;28;20085;-57
2022/12/12 01:16:09;;;;;;;2.55;1.75;;;19.10;51.60;;;;;;4973042;28;20066;-57
2022/12/12 01:18:35;;;;;;;3.38;1.90;;;19.00;51.50;;;;;;4972817;28;20039;-57
2022/12/12 01:21:01;;;;;;;2.58;1.83;;;19.00;51.50;;;;;;4973173;28;20394;-57
2022/12/12 01:23:27;;;;;;;3.15;1.85;;;19.00;51.50;;;;;;4972775;28;20410;-57
2022/12/12 01:26:00;;;;;;;3.72;2.10;;;19.00;51.70;;;;;;4972943;28;20061;-57
2022/12/12 01:28:25;;;;;;;3.13;1.77;;;19.00;51.40;;;;;;4976570;28;20047;-57
2022/12/12 01:30:51;;;;;;;3.20;1.67;;;19.00;51.40;;;;;;4976688;28;20129;-57
2022/12/12 01:33:16;;;;;;;3.53;1.95;;;19.00;51.30;;;;;;4975530;28;20058;-57
2022/12/12 01:35:42;;;;;;;4.05;2.17;;;19.00;51.40;;;;;;4976917;28;20474;-57
2022/12/12 01:38:07;;;;;;;4.15;2.05;;;18.90;51.30;;;;;;4976567;28;20084;-57
2022/12/12 01:40:33;;;;;;;2.85;1.70;;;19.00;51.40;;;;;;4975573;28;20042;-58
2022/12/12 01:42:59;;;;;;;3.55;1.83;;;19.00;51.40;;;;;;4976259;28;20473;-57
2022/12/12 01:45:52;;;;;;;3.80;2.30;;;19.00;51.40;;;;;;4975499;28;20054;-57
2022/12/12 01:48:20;;;;;;;3.25;2.10;;;19.00;51.30;;;;;;4975971;28;20402;-57
2022/12/12 01:50:45;;;;;;;3.13;1.88;;;18.90;51.20;;;;;;4975251;28;20058;-57
2022/12/12 01:53:11;;;;;;;3.60;1.98;;;18.90;51.20;;;;;;4975411;28;20047;-57
2022/12/12 01:55:36;;;;;;;3.85;1.95;;;18.90;51.20;;;;;;4976372;28;20057;-57
2022/12/12 01:58:02;;;;;;;3.10;1.80;;;18.90;51.20;;;;;;4976062;28;20043;-57
2022/12/12 02:00:27;;;;;;;4.00;2.00;;;18.90;51.20;;;;;;4974037;28;20047;-57
2022/12/12 02:02:54;;;;;;;2.75;1.88;;;18.90;51.20;;;;;;4976308;28;20055;-57
2022/12/12 02:05:24;;;;;;;3.78;2.00;;;18.90;51.30;;;;;;4974681;28;20047;-57
2022/12/12 02:07:49;;;;;;;3.40;1.80;;;18.90;51.20;;;;;;4952975;28;20046;-57
2022/12/12 02:10:15;;;;;;;3.45;1.75;;;18.90;51.30;;;;;;4958636;28;20054;-57
2022/12/12 02:12:41;;;;;;;2.97;1.73;;;18.90;51.30;;;;;;4958926;28;20045;-57
2022/12/12 02:15:07;;;;;;;3.10;1.92;;;18.90;51.30;;;;;;4973875;28;20459;-57
2022/12/12 02:17:48;;;;;;;2.78;1.80;;;18.90;51.20;;;;;;4974636;28;20050;-57
2022/12/12 02:20:47;;;;;;;3.05;1.95;;;18.90;51.20;;;;;;4974647;28;20179;-57
2022/12/12 02:23:41;;;;;;;3.50;1.90;;;18.90;51.10;;;;;;4960653;28;20423;-57
2022/12/12 02:26:28;;;;;;;3.67;2.20;;;18.90;51.10;;;;;;4975945;28;20063;-57
2022/12/12 02:29:11;;;;;;;3.20;1.85;;;18.90;51.10;;;;;;4973940;28;20166;-57
2022/12/12 02:31:47;;;;;;;2.78;1.67;;;18.90;51.10;;;;;;4975690;28;20090;-57
2022/12/12 02:34:18;;;;;;;2.85;1.85;;;18.90;51.10;;;;;;4958365;28;20384;-57
2022/12/12 02:37:02;;;;;;;3.50;2.00;;;18.90;51.10;;;;;;4973693;28;20078;-57
2022/12/12 02:40:00;;;;;;;3.63;1.92;;;18.90;51.10;;;;;;4974858;28;20042;-57
2022/12/12 02:42:40;;;;;;;3.05;1.70;;;18.90;51.00;;;;;;4965146;28;20061;-57
2022/12/12 02:45:30;;;;;;;2.85;1.70;;;18.90;51.00;;;;;;4973752;28;20066;-57
2022/12/12 02:48:14;;;;;;;2.85;1.80;;;18.90;51.00;;;;;;4975272;28;20134;-57
2022/12/12 02:50:39;;;;;;;2.97;1.77;;;18.90;51.00;;;;;;4973754;28;20085;-57
2022/12/12 02:53:05;;;;;;;4.47;2.17;;;18.90;51.00;;;;;;4974181;28;20085;-57
2022/12/12 02:55:31;;;;;;;3.22;1.98;;;18.90;51.00;;;;;;4973697;28;20053;-57
2022/12/12 02:57:56;;;;;;;3.08;1.80;;;18.90;50.90;;;;;;4974278;28;20043;-57
2022/12/12 03:00:22;;;;;;;4.05;2.20;;;18.90;50.90;;;;;;4973430;28;20054;-57
2022/12/12 03:09:06;;;;;;;3.53;1.80;;;18.90;50.90;;;;;;4974776;28;20051;-58
2022/12/12 03:11:36;;;;;;;3.28;1.83;;;19.00;50.90;;;;;;4968748;28;20086;-57
2022/12/12 03:14:08;;;;;;;2.92;1.70;;;19.00;50.90;;;;;;4973747;28;20054;-57
2022/12/12 03:16:43;;;;;;;3.60;2.00;;;18.90;50.70;;;;;;4957645;28;20379;-58
2022/12/12 03:19:25;;;;;;;4.00;2.10;;;19.00;50.70;;;;;;4941720;28;20051;-58
2022/12/12 03:22:08;;;;;;;4.03;2.08;;;19.00;51.50;;;;;;4974059;28;20097;-57
2022/12/12 03:24:50;;;;;;;3.28;1.88;;;19.00;50.80;;;;;;4972897;28;20050;-57
2022/12/12 03:27:27;;;;;;;3.63;1.95;;;19.00;50.70;;;;;;4973314;28;20042;-57
2022/12/12 03:29:56;;;;;;;2.72;1.80;;;19.00;50.70;;;;;;4974594;28;20086;-57
2022/12/12 03:32:22;;;;;;;;;;;19.00;50.70;;;;;;4957068;28;20050;-57
2022/12/12 03:34:55;;;;;;;3.63;1.92;;;19.00;50.70;;;;;;4973508;28;19921;-57
2022/12/12 03:37:27;;;;;;;3.75;2.05;;;18.90;50.60;;;;;;4957222;28;20065;-57
2022/12/12 03:40:02;;;;;;;3.28;1.77;;;19.00;50.70;;;;;;4957340;28;20185;-57
2022/12/12 03:42:45;;;;;;;3.45;1.92;;;19.00;50.60;;;;;;4957565;28;20263;-57
2022/12/12 03:45:26;;;;;;;3.08;1.70;;;19.00;50.60;;;;;;4971453;28;20057;-57
2022/12/12 03:48:07;;;;;;;4.72;2.25;;;19.00;50.60;;;;;;4973187;28;20061;-57
2022/12/12 03:50:36;;;;;;;3.13;1.80;;;19.00;50.60;;;;;;4973919;28;20104;-57
2022/12/12 03:53:35;;;;;;;3.05;1.73;;;19.00;50.60;;;;;;4956296;28;20050;-57
2022/12/12 03:56:01;;;;;;;3.58;1.83;;;19.00;50.50;;;;;;4973359;28;20082;-57
2022/12/12 03:59:01;;;;;;;2.88;1.80;;;19.00;50.50;;;;;;4972473;28;20082;-57
2022/12/12 04:01:44;;;;;;;4.05;2.10;;;19.00;50.50;;;;;;4969923;28;20057;-57
2022/12/12 04:04:22;;;;;;;2.95;1.55;;;19.00;50.50;;;;;;4972732;28;20125;-57
2022/12/12 04:07:15;;;;;;;3.08;1.60;;;18.90;50.40;;;;;;4956874;28;20126;-58
2022/12/12 04:13:02;;;;;;;3.20;1.90;;;19.00;50.50;;;;;;4972657;28;20051;-57
2022/12/12 04:15:38;;;;;;;2.85;1.48;;;19.00;51.10;;;;;;4972984;28;20133;-57
2022/12/12 04:18:09;;;;;;;2.85;1.95;;;18.90;50.40;;;;;;4972551;28;20039;-57
2022/12/12 04:24:04;;;;;;;2.72;1.55;;;19.00;50.40;;;;;;4973747;28;20517;-57
2022/12/12 04:26:45;;;;;;;3.40;1.90;;;19.00;50.50;;;;;;4969587;28;20671;-57
2022/12/12 04:29:30;;;;;;;2.80;1.58;;;19.00;50.50;;;;;;4957426;28;20086;-57
2022/12/12 04:32:11;;;;;;;4.60;1.80;;;19.00;50.40;;;;;;4972583;28;20050;-56
2022/12/12 04:34:49;;;;;;;4.20;1.70;;;19.00;50.40;;;;;;4973118;28;20050;-57
2022/12/12 04:37:20;;;;;;;3.85;2.03;;;19.00;50.40;;;;;;4973570;28;20042;-57
2022/12/12 04:39:47;;;;;;;2.55;1.50;;;19.10;50.40;;;;;;4969413;28;20118;-57
2022/12/12 04:42:14;;;;;;;3.05;1.60;;;19.10;50.40;;;;;;4968005;28;20065;-57
2022/12/12 04:44:39;;;;;;;3.05;1.73;;;19.10;50.30;;;;;;4969089;28;20051;-57
2022/12/12 04:47:05;;;;;;;2.97;1.60;;;19.10;50.40;;;;;;4969148;28;20050;-57
2022/12/12 04:49:31;;;;;;;3.33;1.90;;;19.10;50.30;;;;;;4968338;28;20050;-57
2022/12/12 04:52:02;;;;;;;2.50;1.58;;;19.10;50.30;;;;;;4947767;28;20050;-57
2022/12/12 04:54:50;;;;;;;2.92;1.67;;;19.10;50.30;;;;;;4968891;28;20051;-57
2022/12/12 04:57:28;;;;;;;3.20;1.80;;;19.20;51.00;;;;;;4952188;29;20463;-57
2022/12/12 04:59:53;;;;;;;3.40;1.73;;;19.20;50.30;;;;;;4969374;28;20179;-57
2022/12/12 05:02:30;;;;;;;2.70;1.50;;;19.20;50.30;;;;;;4981620;28;20133;-57
2022/12/12 05:05:01;;;;;;;2.20;1.33;;;19.20;50.30;;;;;;4975551;28;20047;-57
2022/12/12 05:07:34;;;;;;;3.17;1.75;;;19.20;50.30;;;;;;4959442;28;20046;-57
2022/12/12 05:10:00;;;;;;;2.97;1.60;;;19.20;50.10;;;;;;4975445;28;20046;-57
2022/12/12 05:12:25;;;;;;;2.47;1.42;;;19.20;50.10;;;;;;4959522;28;20049;-57
2022/12/12 05:14:51;;;;;;;2.72;1.38;;;19.30;50.20;;;;;;4960011;28;20047;-57
2022/12/12 05:17:22;;;;;;;2.90;1.60;;;19.30;50.20;;;;;;4976162;28;20047;-57
2022/12/12 05:19:47;;;;;;;2.97;1.60;;;19.20;50.10;;;;;;4975878;28;20046;-57
2022/12/12 05:22:13;;;;;;;3.05;1.50;;;19.20;50.10;;;;;;4976344;28;20059;-57
2022/12/12 05:24:38;;;;;;;2.90;1.42;;;19.30;50.10;;;;;;4976230;28;20066;-57
2022/12/12 05:27:04;;;;;;;2.67;1.38;;;19.30;50.10;;;;;;4976640;28;20580;-57
2022/12/12 05:29:30;;;;;;;3.00;1.75;;;19.30;50.10;;;;;;4975498;28;20479;-57
2022/12/12 05:31:56;;;;;;;3.17;1.92;;;19.30;50.10;;;;;;4976255;28;20051;-57
2022/12/12 05:34:22;;;;;;;3.25;1.52;;;19.30;50.10;;;;;;4976706;28;20086;-57
2022/12/12 05:36:47;;;;;;;3.03;1.58;;;19.30;50.10;;;;;;4976652;28;20047;-57
2022/12/12 05:39:13;;;;;;;2.95;1.50;;;19.40;50.10;;;;;;4975419;28;20402;-57
2022/12/12 05:41:39;;;;;;;2.63;1.48;;;19.40;50.10;;;;;;4976552;28;20473;-57
2022/12/12 05:44:04;;;;;;;2.50;1.45;;;19.30;50.00;;;;;;4976401;28;20065;-57
2022/12/12 05:46:30;;;;;;;2.70;1.60;;;19.40;50.10;;;;;;4975059;28;20058;-57
2022/12/12 05:48:55;;;;;;;2.58;1.50;;;19.40;50.00;;;;;;4976592;28;20051;-57
2022/12/12 05:51:21;;;;;;;2.90;1.48;;;19.40;50.00;;;;;;4976236;28;20116;-58
2022/12/12 05:53:46;;;;;;;2.58;1.40;;;19.40;50.00;;;;;;4970624;28;20053;-57
2022/12/12 05:56:12;;;;;;;2.78;1.48;;;19.40;50.00;;;;;;4976287;28;20035;-57
2022/12/12 05:58:41;;;;;;;2.40;1.52;;;19.40;49.90;;;;;;4975647;28;20073;-57
2022/12/12 06:01:07;;;;;;;2.35;1.35;;;19.40;49.90;;;;;;4976069;28;20047;-57
2022/12/12 06:03:32;;;;;;;2.67;1.33;;;19.40;49.80;;;;;;4975832;28;20046;-57
2022/12/12 06:05:58;;;;;;;2.95;1.60;;;19.40;49.80;;;;;;4975499;28;20043;-57
2022/12/12 06:08:24;;;;;;;2.70;1.45;;;19.40;49.80;;;;;;4975519;28;20049;-57
2022/12/12 06:10:49;;;;;;;2.83;1.50;;;19.40;49.80;;;;;;4976112;28;20487;-57
2022/12/12 06:13:15;;;;;;;2.78;1.35;;;19.50;49.90;;;;;;4973527;28;20073;-57
2022/12/12 06:15:40;;;;;;;2.72;1.40;;;19.40;49.80;;;;;;4976067;28;20122;-57
2022/12/12 06:18:07;;;;;;;3.50;1.70;;;19.50;49.80;;;;;;4976051;28;20074;-56
2022/12/12 06:20:33;;;;;;;2.75;1.60;;;19.50;49.80;;;;;;4975016;28;20047;-58
2022/12/12 06:22:58;;;;;;;2.75;1.65;;;19.50;49.80;;;;;;4975574;28;20471;-57
2022/12/12 06:25:24;;;;;;;2.95;1.70;;;19.50;49.70;;;;;;4975680;28;20043;-58
2022/12/12 06:27:50;;;;;;;3.13;1.70;;;19.50;49.70;;;;;;4974816;28;20043;-58
2022/12/12 06:30:15;;;;;;;2.72;1.48;;;19.50;49.70;;;;;;4975633;28;20483;-57
2022/12/12 06:32:41;;;;;;;3.25;1.80;;;19.50;49.70;;;;;;4975902;28;20404;-57
2022/12/12 06:35:07;;;;;;;2.75;1.65;;;19.50;49.70;;;;;;4974696;28;20054;-57
2022/12/12 06:37:33;;;;;;;2.90;1.70;;;19.50;49.60;;;;;;4974915;28;20474;-57
2022/12/12 06:39:58;;;;;;;2.30;1.67;;;19.60;49.60;;;;;;4975830;28;20078;-57
2022/12/12 06:42:24;;;;;;;3.58;1.35;;;19.50;49.50;;;;;;4974431;28;20394;-57
2022/12/12 06:44:50;;;;;;;4.63;2.03;;;19.50;49.50;;;;;;4975185;28;20055;-57
2022/12/12 06:47:15;;;;;;;2.25;1.38;;;19.60;49.60;;;;;;4975084;28;20050;-57
2022/12/12 06:49:41;;;;;;;2.95;1.60;;;19.60;49.60;;;;;;4974436;28;20487;-57
2022/12/12 06:52:06;;;;;;;3.28;1.70;;;19.60;49.60;;;;;;4975032;28;20422;-57
2022/12/12 06:54:32;;;;;;;3.15;1.58;;;19.60;49.50;;;;;;4973628;28;20038;-57
2022/12/12 06:56:57;;;;;;;3.38;1.80;;;19.60;49.50;;;;;;4974266;28;20050;-57
2022/12/12 06:59:23;;;;;;;2.65;1.50;;;19.60;49.50;;;;;;4975059;28;20051;-57
2022/12/12 07:01:49;;;;;;;2.55;1.58;;;19.60;49.50;;;;;;4974199;28;20118;-57
2022/12/12 07:04:14;;;;;;;2.65;1.67;;;19.60;49.50;;;;;;4974775;28;20533;-57
2022/12/12 07:06:40;;;;;;;3.25;1.60;;;19.60;49.50;;;;;;4974728;28;20042;-58
2022/12/12 07:09:06;;;;;;;4.03;1.80;;;19.60;49.40;;;;;;4974172;28;20097;-58
2022/12/12 07:11:31;;;;;;;3.20;2.10;;;19.60;49.40;;;;;;4974238;28;20054;-57
2022/12/12 07:13:58;;;;;;;5.38;1.70;;;19.60;49.40;;;;;;4974861;28;20039;-57
2022/12/12 07:16:24;;;;;;;5.43;2.00;;;19.70;49.40;;;;;;4973934;28;20061;-57
2022/12/12 07:18:49;;;;;;;5.10;2.40;;;19.70;49.50;;;;;;4975062;28;20039;-57
2022/12/12 07:21:16;;;;;;;5.30;2.13;;;19.70;49.60;;;;;;4974452;28;20093;-57
2022/12/12 07:23:42;;;;;;;3.25;1.75;;;19.60;49.60;;;;;;4973667;28;20047;-58
2022/12/12 07:26:13;;;;;;;3.70;1.80;;;19.70;49.80;;;;;;4969499;28;20034;-57
2022/12/12 07:28:39;;;;;;;2.83;1.60;;;19.70;49.80;;;;;;4976061;28;20057;-58
2022/12/12 07:31:09;;;;;;;3.25;1.67;;;19.70;49.90;;;;;;4985512;28;20406;-57
2022/12/12 07:33:35;;;;;;;3.15;1.77;;;19.70;50.10;;;;;;4982617;28;20062;-57
2022/12/12 07:36:00;;;;;;;3.50;1.75;;;19.70;50.20;;;;;;4974813;28;20078;-57
2022/12/12 07:38:26;;;;;;;3.30;1.73;;;19.70;50.40;;;;;;4972900;28;20101;-57
2022/12/12 07:40:52;;;;;;;3.95;1.70;;;19.70;50.60;;;;;;4973386;28;20097;-58
2022/12/12 07:43:18;;;;;;;3.35;1.83;;;19.70;50.70;;;;;;4973826;28;20054;-58
2022/12/12 07:45:44;;;;;;;3.20;1.90;;;19.80;50.90;;;;;;4973585;28;20050;-58
2022/12/12 07:48:09;;;;;;;4.55;1.77;;;19.80;51.10;;;;;;4973988;28;20516;-58
2022/12/12 07:50:37;;;;;;;4.07;1.83;;;19.80;51.20;;;;;;4973938;28;20051;-58
2022/12/12 07:53:02;;;;;;;3.67;1.83;;;19.80;51.20;;;;;;4972271;28;20042;-59
2022/12/12 07:55:28;;;;;;;3.92;2.13;;;19.80;51.30;;;;;;4973743;28;20058;-58
2022/12/12 07:57:54;;;;;;;4.10;2.03;;;19.80;51.40;;;;;;4974077;28;20053;-59
2022/12/12 08:00:20;;;;;;;4.55;1.98;;;19.80;51.40;;;;;;4972913;28;20038;-58
2022/12/12 08:02:46;;;;;;;5.85;1.98;;;19.90;51.50;;;;;;4974041;28;20069;-59
2022/12/12 08:05:12;;;;;;;3.10;1.65;;;19.90;51.70;;;;;;4973054;28;20462;-59
2022/12/12 08:07:37;;;;;;;3.60;2.00;;;19.90;51.70;;;;;;4973321;28;20043;-58
2022/12/12 08:10:03;;;;;;;5.57;1.83;;;19.90;51.80;;;;;;4958070;28;20518;-57
2022/12/12 08:12:29;;;;;;;4.20;2.10;;;19.90;51.80;;;;;;4972780;28;20042;-57
2022/12/12 08:14:55;;;;;;;3.92;1.80;;;19.80;51.90;;;;;;4973522;28;20073;-57
2022/12/12 08:17:20;;;;;;;4.70;2.15;;;19.90;52.00;;;;;;4973383;28;20054;-58
2022/12/12 08:19:46;;;;;;;4.45;1.95;;;19.90;52.60;;;;;;4972085;28;20063;-58
2022/12/12 08:22:12;;;;;;;4.68;1.80;;;19.90;51.90;;;;;;4972561;28;20109;-57
2022/12/12 08:24:38;;;;;;;3.78;1.70;;;19.90;51.90;;;;;;4973475;28;20065;-57
2022/12/12 08:27:04;;;;;;;5.45;1.90;;;19.90;52.00;;;;;;4972651;28;20407;-57
2022/12/12 08:29:29;;;;;;;3.28;1.73;;;19.90;52.00;;;;;;4967928;28;20034;-58
2022/12/12 08:31:55;;;;;;;3.30;1.98;;;19.90;52.00;;;;;;4973646;28;20047;-58
2022/12/12 08:34:21;;;;;;;4.18;2.00;;;20.00;52.10;;;;;;4972436;28;20047;-58
2022/12/12 08:36:46;;;;;;;3.17;1.48;;;20.00;52.20;;;;;;4974315;28;20050;-57
2022/12/12 08:39:14;;;;;;;3.17;1.73;;;19.90;52.00;;;;;;4976952;28;20042;-57
2022/12/12 08:41:41;;;;;;;4.28;2.30;;;20.00;52.10;;;;;;4976911;28;20047;-57
2022/12/12 08:44:07;;;;;;;4.28;1.90;;;19.90;52.10;;;;;;4977234;28;20051;-58
2022/12/12 08:46:33;;;;;;;5.38;2.13;;;20.00;52.20;;;;;;4977487;28;20082;-57
2022/12/12 08:48:59;;;;;;;3.53;1.83;;;20.00;52.20;;;;;;4976632;28;20148;-58
2022/12/12 08:51:24;;;;;;;5.07;2.05;;;20.00;52.20;;;;;;4976882;28;20054;-57
2022/12/12 08:53:50;;;;;;;3.75;1.92;;;20.00;52.30;;;;;;4975773;28;20384;-57
2022/12/12 08:56:16;;;;;;;3.25;1.90;;;20.00;52.40;;;;;;4976469;28;20073;-57
2022/12/12 08:58:42;;;;;;;3.13;1.63;;;20.10;52.40;;;;;;4977256;28;20546;-57
2022/12/12 09:01:12;;;;;;;4.88;1.85;;;20.00;52.30;;;;;;4977421;28;20113;-57
2022/12/12 09:03:37;;;;;;;2.88;1.92;;;20.00;52.40;;;;;;4976238;28;20530;-57
2022/12/12 09:06:05;;;;;;;5.85;2.13;;;20.00;52.40;;;;;;4987823;28;20154;-57
2022/12/12 09:08:31;;;;;;;5.38;1.83;;;20.10;52.50;;;;;;4995403;28;20398;-57
2022/12/12 09:10:56;;;;;;;3.38;1.90;;;20.00;52.30;;;;;;4996672;28;20038;-57
2022/12/12 09:13:22;;;;;;;3.53;2.00;;;20.00;52.30;;;;;;4995915;28;20047;-57
2022/12/12 09:15:51;;;;;;;3.80;2.35;;;20.00;52.10;;;;;;4995149;28;20116;-57
2022/12/12 09:18:17;;;;;;;4.65;2.30;;;20.00;52.00;;;;;;4996186;28;20465;-57
2022/12/12 09:20:47;;;;;;;5.00;2.35;;;20.00;51.90;;;;;;4996497;28;20049;-57
2022/12/12 09:23:13;;;;;;;5.00;2.40;;;20.10;51.90;;;;;;4994230;28;20046;-56
2022/12/12 09:25:38;;;;;;;4.72;2.15;;;20.10;52.00;;;;;;4957693;28;20439;-56
2022/12/12 09:28:04;;;;;;;5.82;2.30;;;20.10;52.00;;;;;;4956413;28;20047;-57
2022/12/12 09:30:29;;;;;;;3.38;2.15;;;20.10;52.10;;;;;;4955665;28;20043;-58
2022/12/12 09:32:55;;;;;;;4.07;2.28;;;20.10;52.10;;;;;;4953806;28;20042;-58
2022/12/12 09:35:20;;;;;;;3.85;2.15;;;20.10;52.20;;;;;;4958978;28;20090;-58
2022/12/12 09:37:46;;;;;;;3.70;2.33;;;20.10;52.20;;;;;;4954239;28;20039;-57
2022/12/12 09:40:19;;;;;;;3.85;2.17;;;20.10;52.20;;;;;;4963973;28;20085;-57
2022/12/12 09:42:47;;;;;;;4.22;2.15;;;20.20;52.30;;;;;;4974938;28;20057;-57
2022/12/12 09:45:12;;;;;;;5.33;2.40;;;20.10;52.10;;;;;;4957310;28;20419;-57
2022/12/12 09:47:42;;;;;;;4.45;2.20;;;20.10;52.10;;;;;;4976053;28;20294;-57
2022/12/12 09:50:25;;;;;;;3.10;2.25;;;20.10;52.10;;;;;;4975103;28;20043;-57
2022/12/12 09:52:51;;;;;;;5.50;2.33;;;20.20;52.20;;;;;;4960088;28;20047;-57
2022/12/12 09:55:19;;;;;;;4.07;2.53;;;20.20;52.80;;;;;;4975821;28;20050;-60
2022/12/12 09:57:48;;;;;;;;;;;20.10;52.10;;;;;;4975245;28;20126;-57
2022/12/12 10:00:14;;;;;;;4.95;2.70;;;20.10;52.10;;;;;;4974698;28;20390;-56
2022/12/12 10:02:47;;;;;;;3.25;2.00;;;20.10;52.10;;;;;;4974696;28;20054;-57
2022/12/12 10:05:21;;;;;;;4.30;2.60;;;20.20;52.20;;;;;;4959079;28;20050;-56
2022/12/12 10:07:50;;;;;;;4.22;2.83;;;20.20;52.00;;;;;;4975593;28;20403;-57
2022/12/12 10:10:26;;;;;;;;;;;20.20;52.00;;;;;;4975466;28;20483;-57
2022/12/12 10:12:52;;;;;;;6.25;3.47;;;20.20;51.70;;;;;;4974415;28;19922;-57
2022/12/12 10:15:32;;;;;;;6.50;3.63;;;20.20;51.70;;;;;;4973616;28;20039;-56
2022/12/12 10:17:59;;;;;;;5.38;3.17;;;20.20;51.40;;;;;;4975660;28;20154;-57
2022/12/12 10:20:29;;;;;;;6.70;3.65;;;20.20;51.20;;;;;;4973066;28;20413;-57
2022/12/12 10:23:12;;;;;;;5.75;3.75;;;20.20;51.00;;;;;;4974361;28;20073;-57
2022/12/12 10:25:51;;;;;;;7.75;4.20;;;20.10;50.70;;;;;;4974498;28;20050;-57
2022/12/12 10:28:19;;;;;;;6.97;4.18;;;20.10;50.50;;;;;;4975461;28;20145;-57
2022/12/12 10:30:54;;;;;;;6.43;4.22;;;20.10;50.40;;;;;;4975731;28;20114;-57
2022/12/12 10:33:56;;;;;;;8.10;4.80;;;20.10;50.20;;;;;;4974826;28;20078;-57
2022/12/12 10:36:57;;;;;;;7.85;4.22;;;20.10;49.80;;;;;;4975468;28;20056;-57
2022/12/12 10:39:43;;;;;;;10.43;5.55;;;20.10;49.60;;;;;;4974084;28;20046;-58
2022/12/12 10:42:21;;;;;;;10.13;5.15;;;20.10;50.30;;;;;;4973164;28;20043;-57
2022/12/12 10:44:59;;;;;;;11.35;5.40;;;20.10;49.50;;;;;;4975284;28;20050;-58
2022/12/12 10:47:25;;;;;;;8.20;4.63;;;20.00;49.10;;;;;;4973224;28;20078;-57
2022/12/12 10:49:56;;;;;;;10.25;5.53;;;20.00;49.10;;;;;;4968947;28;20074;-57
2022/12/12 10:52:22;;;;;;;9.65;5.57;;;20.00;48.90;;;;;;4973369;28;20398;-57
2022/12/12 10:54:51;;;;;;;9.27;4.85;;;20.00;48.90;;;;;;4974494;28;20487;-57
2022/12/12 10:57:33;;;;;;;10.98;5.00;;;20.10;48.70;;;;;;4979989;28;20171;-58
2022/12/12 10:59:59;;;;;;;10.52;5.57;;;20.00;48.30;;;;;;4984382;28;20031;-57
2022/12/12 11:02:27;;;;;;;10.07;5.40;;;20.00;48.70;;;;;;4980551;28;20509;-58
2022/12/12 11:05:00;;;;;;;;;;;20.00;48.60;;;;;;4975367;28;20062;-57
2022/12/12 11:07:25;;;;;;;13.20;5.50;;;19.90;48.40;;;;;;4974735;28;19969;-57
2022/12/12 11:09:51;;;;;;;9.27;5.75;;;20.00;48.70;;;;;;4973315;28;20081;-57
2022/12/12 11:12:16;;;;;;;9.38;5.80;;;19.90;48.30;;;;;;4974476;28;20039;-59
2022/12/12 11:14:47;;;;;;;10.13;5.05;;;19.90;48.30;;;;;;4974953;28;20039;-59
2022/12/12 11:17:27;;;;;;;11.20;6.00;;;19.90;48.30;;;;;;4974030;28;20047;-59
2022/12/12 11:19:53;;;;;;;8.95;5.70;;;20.00;48.20;;;;;;4974732;28;20047;-62
2022/12/12 11:22:19;;;;;;;11.43;6.50;;;20.00;48.20;;;;;;4973625;28;20119;-59
2022/12/12 11:24:46;;;;;;;12.23;6.32;;;19.90;48.00;;;;;;4957186;28;20054;-56
2022/12/12 11:27:26;;;;;;;9.77;6.10;;;19.90;47.90;;;;;;4973040;28;20189;-57
2022/12/12 11:29:53;;;;;;;10.63;6.13;;;19.90;47.80;;;;;;4957439;28;20479;-55
2022/12/12 11:32:24;;;;;;;12.23;6.63;;;20.00;47.90;;;;;;4973105;28;20050;-56
2022/12/12 11:34:52;;;;;;;9.30;5.88;;;19.90;47.70;;;;;;4956998;28;20509;-55
2022/12/12 11:37:22;;;;;;;9.98;5.68;;;20.00;47.70;;;;;;4972233;28;20058;-55
2022/12/12 11:39:51;;;;;;;10.05;6.15;;;19.90;47.60;;;;;;4973074;28;20043;-55
2022/12/12 11:42:18;;;;;;;9.65;5.57;;;19.90;47.40;;;;;;4956579;28;20502;-56
2022/12/12 11:44:44;;;;;;;9.13;5.65;;;19.90;48.10;;;;;;4972190;28;20058;-55
2022/12/12 11:47:18;;;;;;;10.95;6.40;;;19.90;47.30;;;;;;4973944;28;20050;-55
2022/12/12 11:49:48;;;;;;;9.60;5.25;;;19.90;47.20;;;;;;4972918;28;20047;-55
2022/12/12 11:52:27;;;;;;;8.82;5.28;;;19.90;47.10;;;;;;4973185;28;20541;-56
2022/12/12 11:54:53;;;;;;;10.45;5.57;;;19.90;46.90;;;;;;4957096;28;20042;-59
2022/12/12 11:57:27;;;;;;;8.57;4.93;;;19.90;47.20;;;;;;4971764;28;20039;-59
2022/12/12 12:00:04;;;;;;;10.73;5.15;;;19.90;47.50;;;;;;4959004;28;20038;-59
2022/12/12 12:02:39;;;;;;;9.05;5.03;;;20.00;47.90;;;;;;4983695;28;20291;-58
2022/12/12 12:05:25;;;;;;;7.30;4.30;;;20.00;48.20;;;;;;4953886;28;20097;-58
2022/12/12 12:08:10;;;;;;;9.30;4.82;;;20.00;48.40;;;;;;4954343;28;20430;-58
2022/12/12 12:10:44;;;;;;;9.18;4.22;;;20.10;48.50;;;;;;4954572;28;20587;-59
2022/12/12 12:13:23;;;;;;;9.98;4.40;;;20.10;49.00;;;;;;4960334;28;20096;-59
2022/12/12 12:16:10;;;;;;;6.70;4.05;;;20.10;49.10;;;;;;4963928;28;20038;-59
2022/12/12 12:19:09;;;;;;;7.55;4.20;;;20.10;49.20;;;;;;4981349;28;20368;-58
2022/12/12 12:21:37;;;;;;;7.15;3.75;;;20.20;49.50;;;;;;4964470;28;20113;-59
2022/12/12 12:24:05;;;;;;;7.25;3.75;;;20.20;49.50;;;;;;4979527;28;20039;-59
2022/12/12 12:26:35;;;;;;;;;;;20.20;49.60;;;;;;4982412;28;20105;-58
2022/12/12 12:29:19;;;;;;;6.07;3.38;;;20.30;49.90;;;;;;4988660;28;19922;-58
2022/12/12 12:31:48;;;;;;;5.88;4.05;;;20.20;49.70;;;;;;4992811;28;20384;-58
2022/12/12 12:34:20;;;;;;;5.85;3.58;;;20.30;50.00;;;;;;4992098;28;20082;-58
2022/12/12 12:37:01;;;;;;;6.28;3.58;;;20.30;50.10;;;;;;4992986;28;20049;-58
2022/12/12 12:39:51;;;;;;;6.38;3.58;;;20.30;50.20;;;;;;4990682;28;20046;-58
2022/12/12 12:42:45;;;;;;;5.35;2.97;;;20.30;50.30;;;;;;4992299;28;20057;-58
2022/12/12 12:45:44;;;;;;;6.80;3.40;;;20.30;50.30;;;;;;4992452;28;20059;-58
2022/12/12 12:48:51;;;;;;;5.10;3.17;;;20.40;50.40;;;;;;4977051;28;20054;-58
2022/12/12 12:51:30;;;;;;;5.93;3.50;;;20.40;50.10;;;;;;4951411;29;20620;-57
2022/12/12 12:54:11;;;;;;;5.85;3.20;;;20.40;50.30;;;;;;4935821;29;20491;-59
2022/12/12 12:56:46;;;;;;;8.30;3.30;;;20.40;50.40;;;;;;4972992;28;20046;-58
2022/12/12 12:59:17;;;;;;;5.82;3.05;;;20.40;50.30;;;;;;4991291;28;20474;-58
2022/12/12 13:01:47;;;;;;;6.88;3.75;;;20.40;50.40;;;;;;4974956;28;20047;-58
2022/12/12 13:04:28;;;;;;;4.97;2.95;;;20.40;50.40;;;;;;4970418;28;20382;-58
2022/12/12 13:06:56;;;;;;;5.93;3.10;;;20.50;50.50;;;;;;4991252;28;20050;-58
2022/12/12 13:09:23;;;;;;;;;;;20.50;50.50;;;;;;4957379;28;20126;-58
2022/12/12 13:11:50;;;;;;;5.53;3.20;;;20.50;50.40;;;;;;4971240;28;20424;-58
2022/12/12 13:14:49;;;;;;;7.30;3.15;;;20.50;50.40;;;;;;4971500;28;20039;-58
2022/12/12 13:17:21;;;;;;;6.18;3.03;;;20.50;50.50;;;;;;4957492;28;20039;-58